Time;durP1;ratioP1;P1;durP2;ratioP2;P2;SDS_P1;SDS_P2;PMS_P1;PMS_P2;Temp;Humidity;BMP_temperature;BMP_pressure;BME280_temperature;BME280_humidity;BME280_pressure;Samples;Min_cycle;Max_cycle;Signal;HPM_P1;HPM_P2
2021/06/28 00:00:40;;;;;;;;;;;17.30;99.90;;;;;;5007835;28;20422;-58
2021/06/28 00:03:07;;;;;;;;;;;17.30;99.90;;;;;;5008864;28;20415;-57
2021/06/28 00:05:33;;;;;;;;;;;17.20;99.90;;;;;;5006461;28;20000;-57
2021/06/28 00:07:58;;;;;;;;;;;17.20;99.90;;;;;;5001660;28;19910;-55
2021/06/28 00:10:27;;;;;;;;;;;17.10;99.90;;;;;;5005856;28;19913;-59
2021/06/28 00:12:53;;;;;;;;;;;17.10;99.90;;;;;;5008099;28;20291;-59
2021/06/28 00:15:20;;;;;;;;;;;17.10;99.90;;;;;;5010938;28;19910;-59
2021/06/28 00:17:47;;;;;;;;;;;17.00;99.90;;;;;;5007745;28;19909;-55
2021/06/28 00:20:12;;;;;;;;;;;17.00;99.90;;;;;;5009696;28;20371;-59
2021/06/28 00:22:38;;;;;;;;;;;17.00;99.90;;;;;;5006522;28;19917;-59
2021/06/28 00:25:08;;;;;;;;;;;17.00;99.90;;;;;;5008695;28;19917;-57
2021/06/28 00:27:35;;;;;;;;;;;17.00;99.90;;;;;;5006110;28;19909;-58
2021/06/28 00:30:00;;;;;;;;;;;17.00;99.90;;;;;;5007689;28;19964;-59
2021/06/28 00:32:26;;;;;;;;;;;17.00;99.90;;;;;;5010947;28;19956;-58
2021/06/28 00:34:51;;;;;;;;;;;16.90;99.90;;;;;;5006591;28;20016;-58
2021/06/28 00:37:17;;;;;;;;;;;16.90;99.90;;;;;;5009818;28;19910;-55
2021/06/28 00:39:51;;;;;;;;;;;16.90;99.90;;;;;;5006170;28;19909;-58
2021/06/28 00:42:17;;;;;;;;;;;16.90;99.90;;;;;;5007800;28;20016;-58
2021/06/28 00:44:43;;;;;;;;;;;16.90;99.90;;;;;;5005092;28;19964;-59
2021/06/28 00:47:08;;;;;;;;;;;16.80;99.90;;;;;;5005336;28;19910;-58
2021/06/28 00:49:34;;;;;;;;;;;16.80;99.90;;;;;;5007041;28;19917;-57
2021/06/28 00:51:59;;;;;;;;;;;16.80;99.90;;;;;;5009088;28;19909;-58
2021/06/28 00:54:25;;;;;;;;;;;16.80;99.90;;;;;;5004070;28;20009;-60
2021/06/28 00:56:51;;;;;;;;;;;16.70;99.90;;;;;;5001110;28;19914;-58
2021/06/28 00:59:17;;;;;;;;;;;16.70;99.90;;;;;;5005223;28;19924;-59
2021/06/28 01:01:43;;;;;;;;;;;16.70;99.90;;;;;;5006601;28;19917;-56
2021/06/28 01:04:08;;;;;;;;;;;16.70;99.90;;;;;;5006096;28;20129;-58
2021/06/28 01:06:34;;;;;;;;;;;16.70;99.90;;;;;;5006586;28;19952;-58
2021/06/28 01:08:59;;;;;;;;;;;16.70;99.90;;;;;;5009057;28;19945;-57
2021/06/28 01:11:25;;;;;;;;;;;16.60;99.90;;;;;;5003836;28;19964;-58
2021/06/28 01:13:51;;;;;;;;;;;16.60;99.90;;;;;;5009901;28;20386;-55
2021/06/28 01:16:16;;;;;;;;;;;16.60;99.90;;;;;;5009517;28;19910;-58
2021/06/28 01:18:42;;;;;;;;;;;16.60;99.90;;;;;;5013360;28;19963;-58
2021/06/28 01:21:09;;;;;;;;;;;16.60;99.90;;;;;;5011763;28;19960;-57
2021/06/28 01:23:34;;;;;;;;;;;16.60;99.90;;;;;;5010475;28;19924;-57
2021/06/28 01:26:02;;;;;;;;;;;16.60;99.90;;;;;;5012756;28;19909;-57
2021/06/28 01:28:28;;;;;;;;;;;16.50;99.90;;;;;;5008121;28;20349;-57
2021/06/28 01:30:54;;;;;;;;;;;16.50;99.90;;;;;;5013724;28;20409;-56
2021/06/28 01:33:20;;;;;;;;;;;16.50;99.90;;;;;;5010228;28;20304;-57
2021/06/28 01:35:47;;;;;;;;;;;16.50;99.90;;;;;;5012727;28;19920;-58
2021/06/28 01:38:12;;;;;;;;;;;16.40;99.90;;;;;;5010942;28;19910;-57
2021/06/28 01:40:38;;;;;;;;;;;16.40;99.90;;;;;;5009831;28;19916;-59
2021/06/28 01:43:03;;;;;;;;;;;16.50;99.90;;;;;;5013470;28;20422;-56
2021/06/28 01:45:29;;;;;;;;;;;16.50;99.90;;;;;;5005717;28;19910;-56
2021/06/28 01:47:57;;;;;;;;;;;16.50;99.90;;;;;;5010583;28;19917;-58
2021/06/28 01:50:23;;;;;;;;;;;16.40;99.90;;;;;;5013354;28;19913;-58
2021/06/28 01:52:48;;;;;;;;;;;16.50;99.90;;;;;;5010265;28;19909;-58
2021/06/28 01:55:15;;;;;;;;;;;16.40;99.90;;;;;;4995503;28;19964;-58
2021/06/28 01:57:43;;;;;;;;;;;16.40;99.90;;;;;;5009238;28;20375;-59
2021/06/28 02:00:09;;;;;;;;;;;16.40;99.90;;;;;;5011553;28;19956;-59
2021/06/28 02:02:34;;;;;;;;;;;16.40;99.90;;;;;;5008093;28;19909;-57
2021/06/28 02:05:00;;;;;;;;;;;16.40;99.90;;;;;;5010385;28;19910;-58
2021/06/28 02:07:25;;;;;;;;;;;16.40;99.90;;;;;;5013137;28;19914;-59
2021/06/28 02:09:51;;;;;;;;;;;16.40;99.90;;;;;;5009422;28;19914;-59
2021/06/28 02:12:17;;;;;;;;;;;16.40;99.90;;;;;;5012041;28;19933;-62
2021/06/28 02:14:43;;;;;;;;;;;16.40;99.90;;;;;;5008168;28;19910;-56
2021/06/28 02:17:08;;;;;;;;;;;16.50;99.90;;;;;;5010642;28;20004;-59
2021/06/28 02:19:34;;;;;;;;;;;16.40;99.90;;;;;;5013026;28;19999;-58
2021/06/28 02:21:59;;;;;;;;;;;16.50;99.90;;;;;;5009725;28;19917;-59
2021/06/28 02:24:25;;;;;;;;;;;16.50;99.90;;;;;;5012536;28;20422;-59
2021/06/28 02:26:50;;;;;;;;;;;16.50;99.90;;;;;;5007873;28;20403;-55
2021/06/28 02:29:16;;;;;;;;;;;16.50;99.90;;;;;;5011302;28;20434;-55
2021/06/28 02:31:42;;;;;;;;;;;16.50;99.90;;;;;;5007685;28;20020;-56
2021/06/28 02:34:07;;;;;;;;;;;16.50;99.90;;;;;;5010099;28;19909;-57
2021/06/28 02:36:33;;;;;;;;;;;16.50;99.90;;;;;;5012382;28;19913;-57
2021/06/28 02:38:59;;;;;;;;;;;16.50;99.90;;;;;;5007163;28;19909;-55
2021/06/28 02:41:25;;;;;;;;;;;16.50;99.90;;;;;;5011649;28;19916;-58
2021/06/28 02:43:51;;;;;;;;;;;16.50;99.90;;;;;;5008395;28;20004;-57
2021/06/28 02:46:17;;;;;;;;;;;16.50;99.90;;;;;;5010760;28;20385;-57
2021/06/28 02:48:43;;;;;;;;;;;16.40;99.90;;;;;;5007501;28;20005;-57
2021/06/28 02:51:09;;;;;;;;;;;16.40;99.90;;;;;;5008225;28;20012;-59
2021/06/28 02:53:35;;;;;;;;;;;16.40;99.90;;;;;;5011716;28;19973;-56
2021/06/28 02:56:12;;;;;;;;;;;16.40;99.90;;;;;;5007682;28;19924;-58
2021/06/28 02:58:51;;;;;;;;;;;16.40;99.90;;;;;;5010707;28;19914;-58
2021/06/28 03:01:21;;;;;;;;;;;16.40;99.90;;;;;;5004442;28;20079;-58
2021/06/28 03:03:46;;;;;;;;;;;16.40;99.90;;;;;;5009405;28;19940;-59
2021/06/28 03:06:12;;;;;;;;;;;16.40;99.90;;;;;;5011330;28;20551;-56
2021/06/28 03:08:38;;;;;;;;;;;16.40;99.90;;;;;;5008654;28;20004;-57
2021/06/28 03:11:04;;;;;;;;;;;16.40;99.90;;;;;;5010687;28;20288;-56
2021/06/28 03:13:30;;;;;;;;;;;16.40;99.90;;;;;;4990302;28;20364;-59
2021/06/28 03:15:56;;;;;;;;;;;16.30;99.90;;;;;;5009905;28;19921;-58
2021/06/28 03:18:22;;;;;;;;;;;16.30;99.90;;;;;;5007034;28;20382;-57
2021/06/28 03:20:47;;;;;;;;;;;16.30;99.90;;;;;;5009492;28;19913;-59
2021/06/28 03:23:13;;;;;;;;;;;16.30;99.90;;;;;;5011359;28;19979;-56
2021/06/28 03:25:39;;;;;;;;;;;16.40;99.90;;;;;;5008363;28;20409;-59
2021/06/28 03:28:05;;;;;;;;;;;16.40;99.90;;;;;;5010647;28;19910;-58
2021/06/28 03:30:30;;;;;;;;;;;16.40;99.90;;;;;;4989807;28;19963;-58
2021/06/28 03:32:56;;;;;;;;;;;16.40;99.90;;;;;;4991408;28;20019;-57
2021/06/28 03:35:21;;;;;;;;;;;16.40;99.90;;;;;;5006358;28;19909;-58
2021/06/28 03:37:47;;;;;;;;;;;16.40;99.90;;;;;;5008827;28;19992;-58
2021/06/28 03:40:13;;;;;;;;;;;16.40;99.90;;;;;;5011266;28;19984;-56
2021/06/28 03:42:39;;;;;;;;;;;16.40;99.90;;;;;;5007944;28;19909;-58
2021/06/28 03:45:05;;;;;;;;;;;16.40;99.90;;;;;;5009866;28;19910;-57
2021/06/28 03:47:31;;;;;;;;;;;16.50;99.90;;;;;;5007144;28;19956;-57
2021/06/28 03:49:56;;;;;;;;;;;16.50;99.90;;;;;;5008453;28;19914;-56
2021/06/28 03:52:22;;;;;;;;;;;16.50;99.90;;;;;;5007619;28;19914;-54
2021/06/28 03:54:47;;;;;;;;;;;16.50;99.90;;;;;;4993920;28;19909;-58
2021/06/28 03:57:13;;;;;;;;;;;16.50;99.90;;;;;;5004729;28;20012;-58
2021/06/28 03:59:38;;;;;;;;;;;16.50;99.90;;;;;;4993780;28;19910;-57
2021/06/28 04:02:04;;;;;;;;;;;16.60;99.90;;;;;;4986431;28;19909;-58
2021/06/28 04:04:29;;;;;;;;;;;16.60;99.90;;;;;;5009596;28;20008;-58
2021/06/28 04:06:55;;;;;;;;;;;16.60;99.90;;;;;;5010745;28;19998;-57
2021/06/28 04:09:20;;;;;;;;;;;16.50;99.90;;;;;;5006999;28;19964;-57
2021/06/28 04:11:46;;;;;;;;;;;16.60;99.90;;;;;;5011287;28;19984;-58
2021/06/28 04:14:13;;;;;;;;;;;16.60;99.90;;;;;;5004145;28;19909;-58
2021/06/28 04:16:38;;;;;;;;;;;16.60;99.90;;;;;;4993354;28;19910;-58
2021/06/28 04:19:04;;;;;;;;;;;16.60;99.90;;;;;;5003985;28;20295;-57
2021/06/28 04:21:31;;;;;;;;;;;16.70;99.90;;;;;;5009912;28;19909;-56
2021/06/28 04:23:56;;;;;;;;;;;16.70;99.90;;;;;;4992421;28;19955;-58
2021/06/28 04:26:21;;;;;;;;;;;16.70;99.90;;;;;;5006663;28;20372;-57
2021/06/28 04:28:47;;;;;;;;;;;16.70;99.90;;;;;;5011158;28;19910;-58
2021/06/28 04:31:12;;;;;;;;;;;16.80;99.90;;;;;;4986411;28;19914;-58
2021/06/28 04:33:38;;;;;;;;;;;16.80;99.90;;;;;;5010784;28;19941;-59
2021/06/28 04:36:04;;;;;;;;;;;16.80;99.90;;;;;;5003264;28;19914;-58
2021/06/28 04:38:29;;;;;;;;;;;16.80;99.90;;;;;;5009397;28;19955;-58
2021/06/28 04:40:54;;;;;;;;;;;16.80;99.90;;;;;;5010389;28;19909;-58
2021/06/28 04:43:20;;;;;;;;;;;16.80;99.90;;;;;;5006071;28;19972;-58
2021/06/28 04:45:45;;;;;;;;;;;16.90;99.90;;;;;;5010571;28;20056;-58
2021/06/28 04:48:11;;;;;;;;;;;16.90;99.90;;;;;;5003909;28;19922;-57
2021/06/28 04:50:36;;;;;;;;;;;16.90;99.90;;;;;;5006262;28;20015;-58
2021/06/28 04:53:02;;;;;;;;;;;17.00;99.90;;;;;;5009640;28;20406;-59
2021/06/28 04:55:27;;;;;;;;;;;17.10;99.90;;;;;;5005761;28;20356;-55
2021/06/28 04:57:55;;;;;;;;;;;17.10;99.90;;;;;;5008697;28;19909;-56
2021/06/28 05:00:22;;;;;;;;;;;17.10;99.90;;;;;;5006171;28;19957;-59
2021/06/28 05:02:47;;;;;;;;;;;17.20;99.90;;;;;;4988991;28;19909;-56
2021/06/28 05:05:13;;;;;;;;;;;17.20;99.90;;;;;;5009709;28;19909;-58
2021/06/28 05:07:39;;;;;;;;;;;17.30;99.90;;;;;;4989176;28;20394;-58
2021/06/28 05:10:06;;;;;;;;;;;17.30;99.90;;;;;;5009161;28;19914;-57
2021/06/28 05:12:31;;;;;;;;;;;17.40;99.90;;;;;;5005699;28;19917;-58
2021/06/28 05:14:57;;;;;;;;;;;17.50;99.90;;;;;;5008017;28;20526;-56
2021/06/28 05:17:24;;;;;;;;;;;17.50;99.90;;;;;;5006136;28;19914;-57
2021/06/28 05:19:50;;;;;;;;;;;17.60;99.90;;;;;;5007070;28;19913;-58
2021/06/28 05:22:15;;;;;;;;;;;17.60;99.90;;;;;;5036759;22;19940;-55
2021/06/28 05:24:41;;;;;;;;;;;17.70;99.90;;;;;;5060644;28;19917;-53
2021/06/28 05:27:06;;;;;;;;;;;17.80;99.90;;;;;;5062011;28;19912;-55
2021/06/28 05:29:32;;;;;;;;;;;17.80;99.90;;;;;;5067816;28;19909;-53
2021/06/28 05:31:57;;;;;;;;;;;17.90;99.90;;;;;;5061514;28;19917;-59
2021/06/28 05:34:23;;;;;;;;;;;18.00;99.90;;;;;;5069438;28;19908;-54
2021/06/28 05:36:48;;;;;;;;;;;18.10;99.90;;;;;;5061952;28;19964;-53
2021/06/28 05:39:14;;;;;;;;;;;18.20;99.90;;;;;;5050626;28;19935;-57
2021/06/28 05:41:39;;;;;;;;;;;18.30;99.90;;;;;;5062005;28;20438;-54
2021/06/28 05:44:05;;;;;;;;;;;18.40;99.90;;;;;;5061543;28;20014;-56
2021/06/28 05:46:30;;;;;;;;;;;18.50;99.90;;;;;;5049813;28;19959;-55
2021/06/28 05:48:55;;;;;;;;;;;18.70;99.90;;;;;;5061148;28;19909;-58
2021/06/28 05:51:21;;;;;;;;;;;18.80;99.90;;;;;;5065270;28;20057;-52
2021/06/28 05:53:48;;;;;;;;;;;19.00;99.90;;;;;;5061914;28;20021;-50
2021/06/28 05:56:13;;;;;;;;;;;19.20;99.90;;;;;;5065786;28;19954;-50
2021/06/28 05:58:39;;;;;;;;;;;19.30;99.90;;;;;;5063743;28;19912;-52
2021/06/28 06:01:04;;;;;;;;;;;19.50;99.90;;;;;;5066203;28;19913;-56
2021/06/28 06:03:30;;;;;;;;;;;19.60;99.90;;;;;;5067920;28;20336;-51
2021/06/28 06:05:56;;;;;;;;;;;19.80;99.90;;;;;;5063088;28;19916;-54
2021/06/28 06:08:24;;;;;;;;;;;20.00;99.90;;;;;;5068804;28;19942;-58
2021/06/28 06:10:51;;;;;;;;;;;20.10;99.90;;;;;;5064615;28;19966;-54
2021/06/28 06:13:16;;;;;;;;;;;20.30;99.90;;;;;;5069376;28;19908;-56
2021/06/28 06:15:42;;;;;;;;;;;20.40;99.90;;;;;;5066840;28;19908;-51
2021/06/28 06:18:07;;;;;;;;;;;20.60;99.90;;;;;;5069826;28;19913;-55
2021/06/28 06:20:33;;;;;;;;;;;20.70;99.90;;;;;;5068139;28;20320;-57
2021/06/28 06:22:58;;;;;;;;;;;20.90;99.90;;;;;;5062956;28;19931;-53
2021/06/28 06:25:23;;;;;;;;;;;21.00;99.90;;;;;;5068195;28;19920;-55
2021/06/28 06:27:49;;;;;;;;;;;21.10;99.90;;;;;;5064840;28;20007;-57
2021/06/28 06:30:15;;;;;;;;;;;21.30;99.90;;;;;;5069229;28;20425;-50
2021/06/28 06:32:40;;;;;;;;;;;21.50;99.90;;;;;;5066696;28;19908;-52
2021/06/28 06:35:06;;;;;;;;;;;21.60;99.90;;;;;;5069331;28;19963;-52
2021/06/28 06:37:32;;;;;;;;;;;21.80;99.90;;;;;;5067735;28;19914;-52
2021/06/28 06:39:58;;;;;;;;;;;22.00;99.90;;;;;;5062890;28;19995;-53
2021/06/28 06:42:23;;;;;;;;;;;22.10;99.90;;;;;;5050238;28;20378;-59
2021/06/28 06:44:49;;;;;;;;;;;22.30;99.90;;;;;;5064558;28;19909;-52
2021/06/28 06:47:14;;;;;;;;;;;22.40;99.90;;;;;;5069152;28;19928;-52
2021/06/28 06:49:40;;;;;;;;;;;22.60;99.90;;;;;;5048831;28;20383;-56
2021/06/28 06:52:06;;;;;;;;;;;22.60;99.90;;;;;;5066814;28;19920;-55
2021/06/28 06:54:31;;;;;;;;;;;22.80;99.90;;;;;;5065263;28;19954;-54
2021/06/28 06:56:56;;;;;;;;;;;22.90;99.90;;;;;;5068551;28;20294;-52
2021/06/28 06:59:22;;;;;;;;;;;23.00;99.90;;;;;;5065588;28;19943;-56
2021/06/28 07:01:47;;;;;;;;;;;23.20;99.90;;;;;;5069258;28;19912;-52
2021/06/28 07:04:14;;;;;;;;;;;23.30;99.90;;;;;;5063776;28;19975;-50
2021/06/28 07:06:41;;;;;;;;;;;23.50;99.90;;;;;;5065127;28;19954;-55
2021/06/28 07:09:06;;;;;;;;;;;23.70;99.90;;;;;;5066537;28;20285;-50
2021/06/28 07:11:32;;;;;;;;;;;23.90;99.90;;;;;;5065099;28;19917;-51
2021/06/28 07:13:59;;;;;;;;;;;24.00;99.90;;;;;;5067935;28;19991;-50
2021/06/28 07:16:30;;;;;;;;;;;24.20;99.90;;;;;;5065207;28;19908;-54
2021/06/28 07:18:59;;;;;;;;;;;24.40;99.90;;;;;;5069396;28;19943;-54
2021/06/28 07:21:25;;;;;;;;;;;24.70;99.90;;;;;;5062118;28;19987;-55
2021/06/28 07:23:52;;;;;;;;;;;24.70;99.90;;;;;;5066310;28;19930;-56
2021/06/28 07:26:18;;;;;;;;;;;24.90;99.90;;;;;;5064424;28;20412;-54
2021/06/28 07:28:44;;;;;;;;;;;25.00;99.90;;;;;;5048515;28;19958;-53
2021/06/28 07:31:09;;;;;;;;;;;25.30;99.90;;;;;;5067287;28;19921;-51
2021/06/28 07:33:39;;;;;;;;;;;25.60;99.90;;;;;;5065744;28;19909;-53
2021/06/28 07:36:05;;;;;;;;;;;25.80;99.90;;;;;;5068768;28;20290;-52
2021/06/28 07:38:30;;;;;;;;;;;25.90;99.90;;;;;;5061249;28;20545;-51
2021/06/28 07:40:55;;;;;;;;;;;26.10;99.90;;;;;;5066763;28;19909;-53
2021/06/28 07:43:21;;;;;;;;;;;26.20;99.90;;;;;;5046040;28;19908;-54
2021/06/28 07:45:50;;;;;;;;;;;26.30;99.90;;;;;;5066400;28;19919;-53
2021/06/28 07:48:16;;;;;;;;;;;26.30;99.90;;;;;;5057299;28;20347;-58
2021/06/28 07:50:42;;;;;;;;;;;26.40;99.90;;;;;;5063024;28;19967;-57
2021/06/28 07:53:08;;;;;;;;;;;26.40;99.90;;;;;;5063293;28;19908;-55
2021/06/28 07:55:33;;;;;;;;;;;26.50;99.90;;;;;;5068479;28;19915;-53
2021/06/28 07:57:59;;;;;;;;;;;26.50;99.90;;;;;;5063044;28;19909;-52
2021/06/28 08:00:24;;;;;;;;;;;26.50;99.90;;;;;;5070584;28;20397;-54
2021/06/28 08:02:50;;;;;;;;;;;26.50;99.70;;;;;;5062567;28;19916;-60
2021/06/28 08:05:16;;;;;;;;;;;26.60;99.80;;;;;;5045001;28;19944;-54
2021/06/28 08:07:42;;;;;;;;;;;26.60;99.90;;;;;;5065610;28;19912;-56
2021/06/28 08:10:09;;;;;;;;;;;26.70;99.90;;;;;;5062830;28;19978;-48
2021/06/28 08:12:34;;;;;;;;;;;26.80;99.00;;;;;;5067980;28;20326;-53
2021/06/28 08:15:00;;;;;;;;;;;26.70;99.20;;;;;;5062495;28;19935;-52
2021/06/28 08:17:25;;;;;;;;;;;26.70;99.90;;;;;;5070854;28;20424;-56
2021/06/28 08:19:51;;;;;;;;;;;26.70;99.80;;;;;;5062750;28;20295;-56
2021/06/28 08:22:17;;;;;;;;;;;26.80;99.00;;;;;;5062755;28;19909;-58
2021/06/28 08:24:43;;;;;;;;;;;27.00;98.60;;;;;;5064176;28;20007;-52
2021/06/28 08:27:09;;;;;;;;;;;27.00;99.00;;;;;;5062856;28;20058;-56
2021/06/28 08:29:35;;;;;;;;;;;27.00;99.30;;;;;;5067907;28;19916;-58
2021/06/28 08:32:00;;;;;;;;;;;27.00;98.30;;;;;;5062604;28;19912;-55
2021/06/28 08:34:26;;;;;;;;;;;27.00;97.50;;;;;;5070023;28;19999;-60
2021/06/28 08:36:53;;;;;;;;;;;27.10;97.40;;;;;;5062322;28;19994;-56
2021/06/28 08:39:18;;;;;;;;;;;27.20;96.90;;;;;;5044871;28;19960;-52
2021/06/28 08:41:48;;;;;;;;;;;27.40;97.70;;;;;;5064838;28;20599;-53
2021/06/28 08:44:15;;;;;;;;;;;27.60;97.10;;;;;;5063500;28;19915;-54
2021/06/28 08:46:41;;;;;;;;;;;27.90;96.60;;;;;;5066994;28;19955;-54
2021/06/28 08:49:07;;;;;;;;;;;28.10;96.40;;;;;;5063523;28;19921;-53
2021/06/28 08:51:33;;;;;;;;;;;28.20;94.20;;;;;;5065672;28;20129;-54
2021/06/28 08:54:03;;;;;;;;;;;28.50;93.90;;;;;;5061937;28;19912;-54
2021/06/28 08:56:28;;;;;;;;;;;28.70;94.10;;;;;;5066605;28;19913;-53
2021/06/28 08:58:53;;;;;;;;;;;29.00;93.70;;;;;;5063503;28;20590;-58
2021/06/28 09:01:19;;;;;;;;;;;29.30;92.30;;;;;;5067305;28;19919;-52
2021/06/28 09:03:44;;;;;;;;;;;29.60;92.70;;;;;;5064960;28;19972;-56
2021/06/28 09:06:10;;;;;;;;;;;29.60;89.80;;;;;;5060062;28;19917;-56
2021/06/28 09:08:36;;;;;;;;;;;29.50;87.50;;;;;;5065750;28;19914;-58
2021/06/28 09:11:03;;;;;;;;;;;29.50;88.20;;;;;;5061884;28;20457;-55
2021/06/28 09:13:42;;;;;;;;;;;29.60;87.40;;;;;;5066636;28;20448;-55
2021/06/28 09:16:22;;;;;;;;;;;29.70;86.20;;;;;;5063875;28;20034;-54
2021/06/28 09:18:50;;;;;;;;;;;29.80;86.50;;;;;;5067600;28;19908;-53
2021/06/28 09:21:16;;;;;;;;;;;30.00;82.60;;;;;;5055915;28;19978;-55
2021/06/28 09:23:42;;;;;;;;;;;30.00;84.00;;;;;;5063434;28;20375;-54
2021/06/28 09:26:14;;;;;;;;;;;29.90;81.70;;;;;;5046166;28;19908;-51
2021/06/28 09:28:42;;;;;;;;;;;30.00;82.00;;;;;;5046312;28;19915;-53
2021/06/28 09:31:09;;;;;;;;;;;30.00;80.00;;;;;;5065941;28;19912;-52
2021/06/28 09:33:35;;;;;;;;;;;29.70;80.20;;;;;;5064175;28;19909;-56
2021/06/28 09:36:15;;;;;;;;;;;29.70;82.80;;;;;;5067736;28;19924;-55
2021/06/28 09:38:41;;;;;;;;;;;29.90;81.10;;;;;;5057917;28;19934;-51
2021/06/28 09:41:25;;;;;;;;;;;30.10;80.50;;;;;;5070632;28;20668;-58
2021/06/28 09:43:58;;;;;;;;;;;30.40;81.40;;;;;;5060151;28;20310;-59
2021/06/28 09:46:24;;;;;;;;;;;30.60;82.50;;;;;;5072874;28;19995;-53
2021/06/28 09:48:50;;;;;;;;;;;30.80;82.30;;;;;;5060964;28;19974;-55
2021/06/28 09:51:16;;;;;;;;;;;30.90;78.70;;;;;;5068806;28;19912;-55
2021/06/28 09:53:41;;;;;;;;;;;31.10;76.60;;;;;;5066338;28;19954;-54
2021/06/28 09:56:07;;;;;;;;;;;31.00;74.50;;;;;;5068853;28;19909;-51
2021/06/28 09:58:33;;;;;;;;;;;30.90;75.90;;;;;;5067406;28;19915;-55
2021/06/28 10:01:00;;;;;;;;;;;31.10;77.80;;;;;;5069885;28;20333;-54
2021/06/28 10:03:46;;;;;;;;;;;31.20;77.00;;;;;;5068138;28;19908;-58
2021/06/28 10:08:40;;;;;;;;;;;30.80;76.00;;;;;;5068709;28;19952;-56
2021/06/28 10:11:09;;;;;;;;;;;30.80;75.80;;;;;;5065043;28;19913;-48
2021/06/28 10:13:34;;;;;;;;;;;31.00;75.50;;;;;;5069635;28;19908;-54
2021/06/28 10:16:00;;;;;;;;;;;31.20;73.10;;;;;;5066695;28;19962;-57
2021/06/28 10:18:25;;;;;;;;;;;31.40;74.10;;;;;;5070596;28;19908;-52
2021/06/28 10:20:51;;;;;;;;;;;31.50;71.30;;;;;;5067759;28;19909;-54
2021/06/28 10:23:16;;;;;;;;;;;31.30;71.50;;;;;;5062793;28;19923;-54
2021/06/28 10:25:42;;;;;;;;;;;31.10;72.30;;;;;;5068322;28;19948;-51
2021/06/28 10:28:07;;;;;;;;;;;31.10;71.10;;;;;;5064841;28;19995;-52
2021/06/28 10:30:33;;;;;;;;;;;31.20;73.10;;;;;;5069384;28;20016;-58
2021/06/28 10:33:03;;;;;;;;;;;31.40;71.10;;;;;;5066255;28;20386;-58
2021/06/28 10:35:32;;;;;;;;;;;31.60;70.40;;;;;;5069840;28;19935;-57
2021/06/28 10:37:59;;;;;;;;;;;31.80;69.30;;;;;;5049255;28;19908;-55
2021/06/28 10:40:25;;;;;;;;;;;31.90;70.40;;;;;;5063908;28;19908;-57
2021/06/28 10:42:51;;;;;;;;;;;32.20;65.50;;;;;;5068297;28;19916;-52
2021/06/28 10:45:35;;;;;;;;;;;32.30;62.70;;;;;;5064812;28;20015;-53
2021/06/28 10:48:10;;;;;;;;;;;32.20;63.50;;;;;;5068697;28;19948;-48
2021/06/28 10:50:51;;;;;;;;;;;32.20;64.10;;;;;;5060789;28;20390;-57
2021/06/28 10:53:36;;;;;;;;;;;32.20;63.90;;;;;;5049538;28;19909;-58
2021/06/28 10:56:26;;;;;;;;;;;32.30;64.30;;;;;;5049543;28;19908;-55
2021/06/28 10:58:59;;;;;;;;;;;32.30;65.90;;;;;;5065536;28;19912;-56
2021/06/28 11:01:34;;;;;;;;;;;32.60;63.70;;;;;;5055455;28;19908;-56
2021/06/28 11:04:12;;;;;;;;;;;32.70;61.40;;;;;;5065941;28;19919;-54
2021/06/28 11:07:04;;;;;;;;;;;32.80;61.90;;;;;;5065074;28;19908;-59
2021/06/28 11:09:32;;;;;;;;;;;32.90;62.60;;;;;;5050329;28;19935;-57
2021/06/28 11:11:58;;;;;;;;;;;33.00;61.60;;;;;;5068402;28;19913;-57
2021/06/28 11:14:25;;;;;;;;;;;33.10;60.10;;;;;;5065873;28;19932;-59
2021/06/28 11:16:55;;;;;;;;;;;32.90;59.30;;;;;;5068559;28;19908;-50
2021/06/28 11:19:40;;;;;;;;;;;33.10;59.50;;;;;;5067722;28;19934;-55
2021/06/28 11:22:41;;;;;;;;;;;33.10;60.20;;;;;;5062823;28;19909;-54
2021/06/28 11:25:09;;;;;;;;;;;32.80;59.60;;;;;;5074046;22;20387;-56
2021/06/28 11:27:35;;;;;;;;;;;32.90;59.90;;;;;;5051899;28;20441;-55
2021/06/28 11:30:02;;;;;;;;;;;33.00;58.00;;;;;;5051597;28;19908;-56
2021/06/28 11:32:29;;;;;;;;;;;32.90;56.50;;;;;;5051238;28;19909;-52
2021/06/28 11:34:56;;;;;;;;;;;32.60;56.30;;;;;;5050856;28;19952;-58
2021/06/28 11:37:22;;;;;;;;;;;32.50;56.50;;;;;;5033557;28;19947;-55
2021/06/28 11:39:55;;;;;;;;;;;32.60;58.30;;;;;;5051239;28;19909;-55
2021/06/28 11:42:30;;;;;;;;;;;32.80;59.10;;;;;;5044299;28;19909;-57
2021/06/28 11:45:00;;;;;;;;;;;33.10;56.90;;;;;;5051162;28;19913;-55
2021/06/28 11:47:55;;;;;;;;;;;33.50;56.10;;;;;;5051407;28;20000;-52
2021/06/28 11:50:24;;;;;;;;;;;33.50;56.40;;;;;;5015746;28;19913;-54
2021/06/28 11:53:00;;;;;;;;;;;33.40;58.80;;;;;;5050834;28;19909;-55
2021/06/28 11:55:27;;;;;;;;;;;33.30;59.40;;;;;;5050727;28;20322;-57
2021/06/28 11:57:53;;;;;;;;;;;33.10;57.60;;;;;;5051204;28;19912;-53
2021/06/28 12:00:19;;;;;;;;;;;33.10;59.70;;;;;;5050044;28;20007;-55
2021/06/28 12:02:44;;;;;;;;;;;33.20;58.90;;;;;;5050657;28;20033;-57
2021/06/28 12:05:10;;;;;;;;;;;33.20;59.00;;;;;;5032748;28;19917;-56
2021/06/28 12:07:36;;;;;;;;;;;33.30;59.00;;;;;;5050912;28;20000;-57
2021/06/28 12:10:02;;;;;;;;;;;33.20;58.00;;;;;;5050626;28;19944;-56
2021/06/28 12:12:28;;;;;;;;;;;33.00;57.50;;;;;;5032861;28;19909;-56
2021/06/28 12:14:53;;;;;;;;;;;32.70;59.00;;;;;;5050711;28;19916;-54
2021/06/28 12:17:30;;;;;;;;;;;32.50;56.40;;;;;;5050961;28;19995;-57
2021/06/28 12:20:08;;;;;;;;;;;32.40;59.00;;;;;;5050285;28;20394;-54
2021/06/28 12:22:37;;;;;;;;;;;32.20;56.70;;;;;;5050577;28;19952;-52
2021/06/28 12:25:07;;;;;;;;;;;32.20;59.10;;;;;;5047825;28;20371;-52
2021/06/28 12:27:34;;;;;;;;;;;32.20;55.40;;;;;;5050349;28;19916;-54
2021/06/28 12:30:00;;;;;;;;;;;32.20;56.70;;;;;;5050255;28;19909;-55
2021/06/28 12:32:26;;;;;;;;;;;32.30;55.90;;;;;;5050361;28;19916;-54
2021/06/28 12:34:59;;;;;;;;;;;32.20;54.10;;;;;;5032056;28;19915;-58
2021/06/28 12:37:29;;;;;;;;;;;32.30;55.50;;;;;;5050733;28;19916;-54
2021/06/28 12:40:14;;;;;;;;;;;32.40;56.60;;;;;;5032330;28;19913;-57
2021/06/28 12:42:46;;;;;;;;;;;32.40;56.20;;;;;;5050572;28;19909;-58
2021/06/28 12:45:12;;;;;;;;;;;32.10;54.30;;;;;;5050228;28;19909;-56
2021/06/28 12:47:38;;;;;;;;;;;31.80;54.10;;;;;;5050729;28;19954;-54
2021/06/28 12:50:03;;;;;;;;;;;31.80;55.30;;;;;;5032328;28;20007;-54
2021/06/28 12:52:31;;;;;;;;;;;31.80;56.10;;;;;;5050172;28;19909;-54
2021/06/28 12:55:01;;;;;;;;;;;31.80;58.70;;;;;;5050275;28;19908;-56
2021/06/28 12:57:26;;;;;;;;;;;31.80;56.90;;;;;;5050209;28;19908;-57
2021/06/28 12:59:52;;;;;;;;;;;31.70;57.30;;;;;;5050255;28;19916;-51
2021/06/28 13:02:30;;;;;;;;;;;31.70;55.70;;;;;;5050128;28;19955;-55
2021/06/28 13:05:22;;;;;;;;;;;31.90;57.50;;;;;;5049732;28;20375;-56
2021/06/28 13:07:47;;;;;;;;;;;32.20;56.70;;;;;;5044959;28;19908;-57
2021/06/28 13:10:13;;;;;;;;;;;32.30;54.30;;;;;;5050004;28;19916;-54
2021/06/28 13:12:39;;;;;;;;;;;32.20;55.40;;;;;;5053718;28;19911;-57
2021/06/28 13:15:18;;;;;;;;;;;32.10;55.70;;;;;;5054708;28;19916;-56
2021/06/28 13:17:43;;;;;;;;;;;32.00;56.70;;;;;;5054099;28;19960;-57
2021/06/28 13:20:19;;;;;;;;;;;31.90;56.20;;;;;;5054069;28;20383;-58
2021/06/28 13:22:44;;;;;;;;;;;31.80;55.60;;;;;;5053926;28;19921;-56
2021/06/28 13:25:17;;;;;;;;;;;31.70;55.20;;;;;;5053699;28;19931;-58
2021/06/28 13:27:43;;;;;;;;;;;31.60;56.60;;;;;;5053861;28;20466;-54
2021/06/28 13:30:38;;;;;;;;;;;31.40;56.90;;;;;;5035882;28;20000;-58
2021/06/28 13:33:12;;;;;;;;;;;31.30;57.70;;;;;;5020503;28;19915;-55
2021/06/28 13:35:39;;;;;;;;;;;31.20;60.10;;;;;;5053628;28;19944;-55
2021/06/28 13:38:09;;;;;;;;;;;31.20;59.10;;;;;;5036006;28;19936;-55
2021/06/28 13:40:35;;;;;;;;;;;31.20;59.60;;;;;;5053731;28;20003;-53
2021/06/28 13:43:02;;;;;;;;;;;31.20;58.60;;;;;;5053730;28;20343;-59
2021/06/28 13:45:38;;;;;;;;;;;31.10;57.70;;;;;;5053887;28;20402;-53
2021/06/28 13:48:07;;;;;;;;;;;31.10;58.10;;;;;;5053541;28;19909;-55
2021/06/28 13:50:32;;;;;;;;;;;31.20;59.50;;;;;;5049368;28;20286;-58
2021/06/28 13:53:07;;;;;;;;;;;31.40;58.30;;;;;;5053394;28;19909;-52
2021/06/28 13:55:33;;;;;;;;;;;31.50;56.50;;;;;;5053281;28;19909;-56
2021/06/28 13:58:03;;;;;;;;;;;31.60;56.90;;;;;;5053646;28;20290;-56
2021/06/28 14:00:30;;;;;;;;;;;31.70;59.50;;;;;;5053413;28;19909;-56
2021/06/28 14:02:57;;;;;;;;;;;31.70;58.50;;;;;;5050659;28;19909;-51
2021/06/28 14:05:24;;;;;;;;;;;31.80;56.70;;;;;;5053246;28;19962;-55
2021/06/28 14:07:49;;;;;;;;;;;31.90;56.10;;;;;;5053223;28;19912;-54
2021/06/28 14:10:15;;;;;;;;;;;31.80;57.80;;;;;;5027357;28;20051;-55
2021/06/28 14:12:41;;;;;;;;;;;31.90;57.10;;;;;;5053483;28;19909;-54
2021/06/28 14:15:08;;;;;;;;;;;32.00;58.60;;;;;;5052867;28;19909;-53
2021/06/28 14:17:34;;;;;;;;;;;32.10;56.90;;;;;;5052996;28;20515;-56
2021/06/28 14:19:59;;;;;;;;;;;32.20;58.00;;;;;;5035083;28;19916;-54